Time;durP1;ratioP1;P1;durP2;ratioP2;P2;SDS_P1;SDS_P2;PMS_P1;PMS_P2;Temp;Humidity;BMP_temperature;BMP_pressure;BME280_temperature;BME280_humidity;BME280_pressure;Samples;Min_cycle;Max_cycle;Signal;HPM_P1;HPM_P2
2022/04/16 00:02:21;;;;;;;6.88;4.10;;;;;;;13.56;38.02;98689.94;5132046;27;20051;-90
2022/04/16 00:04:47;;;;;;;7.80;4.32;;;;;;;13.41;39.77;98687.88;5132435;27;20049;-92
2022/04/16 00:07:14;;;;;;;8.02;3.90;;;;;;;13.27;41.51;98697.28;5128016;28;20488;-92
2022/04/16 00:09:39;;;;;;;8.88;4.53;;;;;;;12.99;41.88;98672.56;5129596;27;20480;-91
2022/04/16 00:12:06;;;;;;;7.22;4.60;;;;;;;13.02;42.41;98683.13;5131583;27;20048;-93
2022/04/16 00:14:32;;;;;;;7.22;4.60;;;;;;;12.90;41.80;98650.66;5131984;27;20035;-93
2022/04/16 00:16:59;;;;;;;8.77;4.72;;;;;;;12.93;42.96;98666.53;5132715;27;20423;-94
2022/04/16 00:19:24;;;;;;;7.25;4.65;;;;;;;12.98;43.28;98674.38;5129550;27;20040;-90
2022/04/16 00:21:51;;;;;;;7.07;4.18;;;;;;;12.85;43.69;98641.94;5131806;27;20112;-95
2022/04/16 00:24:18;;;;;;;8.45;4.82;;;;;;;13.07;43.57;98673.16;5131773;27;20068;-91
2022/04/16 00:26:46;;;;;;;8.20;4.40;;;;;;;13.03;43.52;98663.50;5131177;27;20035;-91
2022/04/16 00:29:12;;;;;;;9.88;5.00;;;;;;;13.03;43.11;98655.50;5129200;28;20036;-91
2022/04/16 00:31:38;;;;;;;8.13;4.60;;;;;;;13.14;42.71;98653.28;5131695;27;20080;-93
2022/04/16 00:34:05;;;;;;;7.50;4.38;;;;;;;13.24;42.25;98670.69;5131836;27;20111;-90
2022/04/16 00:36:31;;;;;;;7.13;4.05;;;;;;;13.14;41.92;98650.59;5127970;27;20032;-94
2022/04/16 00:38:57;;;;;;;8.57;4.82;;;;;;;13.23;40.99;98638.69;5132025;27;20115;-89
2022/04/16 00:41:24;;;;;;;8.55;4.35;;;;;;;13.21;41.00;98644.13;5132001;27;20039;-93
2022/04/16 00:43:52;;;;;;;8.77;4.47;;;;;;;13.31;41.01;98668.66;5131658;27;20392;-93
2022/04/16 00:46:19;;;;;;;6.95;4.32;;;;;;;13.31;39.99;98649.97;5131506;27;20126;-92
2022/04/16 00:48:45;;;;;;;6.20;4.38;;;;;;;13.41;40.27;98659.38;5131203;27;20378;-93
2022/04/16 00:51:11;;;;;;;7.47;4.43;;;;;;;13.25;40.41;98632.38;5128447;27;20046;-93
2022/04/16 00:53:36;;;;;;;9.50;4.07;;;;;;;13.51;39.26;98659.84;5132584;27;20043;-91
2022/04/16 00:56:06;;;;;;;8.02;4.10;;;;;;;13.58;38.33;98658.69;5130873;27;20042;-91
2022/04/16 00:58:33;;;;;;;8.05;5.00;;;;;;;13.50;38.05;98634.09;5124784;27;20051;-93
2022/04/16 01:00:59;;;;;;;6.45;4.03;;;;;;;13.70;38.08;98665.31;5113758;28;20073;-92
2022/04/16 01:03:26;;;;;;;6.40;4.60;;;;;;;13.73;37.53;98642.00;5118208;28;20036;-94
2022/04/16 01:05:52;;;;;;;6.28;4.03;;;;;;;13.78;36.85;98639.16;5117179;28;20366;-93
2022/04/16 01:08:19;;;;;;;7.40;4.40;;;;;;;13.88;37.33;98655.66;5114398;28;20038;-92
2022/04/16 01:10:45;;;;;;;7.18;4.28;;;;;;;13.75;37.53;98641.97;5115168;27;20055;-92
2022/04/16 01:13:11;;;;;;;6.50;4.32;;;;;;;13.72;37.47;98640.25;5117120;28;20039;-92
2022/04/16 01:15:39;;;;;;;7.20;4.13;;;;;;;13.68;37.25;98646.66;5116879;28;20048;-90
2022/04/16 01:18:05;;;;;;;6.60;4.00;;;;;;;13.84;37.03;98662.09;5116788;27;20500;-90
2022/04/16 01:20:34;;;;;;;7.88;4.30;;;;;;;13.88;36.81;98656.53;5116917;28;20063;-92
2022/04/16 01:23:02;;;;;;;6.28;4.03;;;;;;;13.76;36.84;98635.66;5105615;28;20519;-91
2022/04/16 01:25:28;;;;;;;7.75;4.45;;;;;;;13.79;36.20;98638.19;5116417;28;20039;-92
2022/04/16 01:27:54;;;;;;;7.50;3.80;;;;;;;14.02;35.76;98663.97;5116176;28;20097;-91
2022/04/16 01:30:22;;;;;;;7.65;4.28;;;;;;;13.85;35.65;98639.75;5116420;27;20063;-92
2022/04/16 01:32:49;;;;;;;7.75;4.00;;;;;;;13.80;36.24;98626.59;5116745;28;20415;-92
2022/04/16 01:35:16;;;;;;;6.70;4.32;;;;;;;13.66;35.54;98627.19;5116487;28;20031;-92
2022/04/16 01:37:42;;;;;;;6.85;3.85;;;;;;;13.71;35.29;98630.53;5116520;28;20118;-91
2022/04/16 01:40:11;;;;;;;6.95;4.03;;;;;;;13.68;35.51;98629.78;5117562;28;20128;-92
2022/04/16 01:42:37;;;;;;;;;;;;;;;13.71;35.94;98653.72;5117975;28;20581;-92
2022/04/16 01:45:03;;;;;;;7.25;4.07;;;;;;;13.57;35.94;98648.91;5112582;28;19920;-92
2022/04/16 01:47:29;;;;;;;9.48;4.90;;;;;;;13.57;35.34;98635.56;5118142;28;20043;-91
2022/04/16 01:49:55;;;;;;;8.13;4.43;;;;;;;13.55;35.65;98630.31;5116846;28;20039;-92
2022/04/16 01:52:22;;;;;;;9.07;4.50;;;;;;;13.48;35.80;98634.13;5116129;28;20070;-92
2022/04/16 01:54:47;;;;;;;8.32;4.50;;;;;;;13.39;35.20;98615.81;5113859;28;20118;-93
2022/04/16 01:57:18;;;;;;;6.72;4.25;;;;;;;13.56;34.18;98624.00;5116923;28;20131;-91
2022/04/16 01:59:44;;;;;;;8.18;3.50;;;;;;;13.72;33.13;98631.38;5116246;28;20059;-94
2022/04/16 02:02:10;;;;;;;7.35;3.90;;;;;;;13.75;32.92;98616.09;5116216;28;20060;-93
2022/04/16 02:04:35;;;;;;;7.82;4.00;;;;;;;13.91;32.96;98634.16;5117099;28;20042;-94
2022/04/16 02:07:01;;;;;;;7.45;3.83;;;;;;;13.99;32.48;98629.34;5117715;28;20040;-92
2022/04/16 02:09:27;;;;;;;6.70;3.75;;;;;;;14.00;31.89;98620.38;5117026;28;20065;-93
2022/04/16 02:11:53;;;;;;;9.57;4.05;;;;;;;13.97;32.01;98616.03;5115794;28;20047;-94
2022/04/16 02:14:21;;;;;;;6.10;3.83;;;;;;;14.06;31.85;98630.81;5116378;27;20054;-92
2022/04/16 02:16:47;;;;;;;9.52;3.53;;;;;;;14.16;31.64;98621.47;5116160;28;20512;-94
2022/04/16 02:19:14;;;;;;;8.80;3.90;;;;;;;14.16;31.62;98628.59;5115508;28;20110;-92
2022/04/16 02:21:40;;;;;;;6.60;3.22;;;;;;;14.14;31.29;98612.63;5116097;28;20061;-93
2022/04/16 02:24:06;;;;;;;9.82;3.92;;;;;;;14.23;31.02;98621.19;5115308;28;20051;-95
2022/04/16 02:26:32;;;;;;;7.40;4.00;;;;;;;14.08;31.89;98604.88;5116457;28;20085;-92
2022/04/16 02:28:59;;;;;;;8.90;3.85;;;;;;;14.03;32.17;98617.59;5115149;28;20383;-93
2022/04/16 02:31:27;;;;;;;8.95;3.80;;;;;;;14.12;32.08;98621.66;5116141;28;20076;-91
2022/04/16 02:33:55;;;;;;;5.75;3.50;;;;;;;14.10;32.49;98604.81;5108967;28;20127;-93
2022/04/16 02:36:22;;;;;;;6.18;3.67;;;;;;;14.06;32.81;98625.47;5116194;28;20055;-93
2022/04/16 02:38:48;;;;;;;6.05;3.70;;;;;;;13.98;33.20;98612.41;5114808;28;20039;-93
2022/04/16 02:41:14;;;;;;;7.50;4.00;;;;;;;14.05;32.95;98617.50;5112622;28;20048;-91
2022/04/16 02:43:40;;;;;;;11.52;5.07;;;;;;;13.98;33.12;98604.41;5116130;28;20050;-94
2022/04/16 02:49:05;;;;;;;6.60;3.72;;;;;;;14.09;33.46;98614.63;5092048;27;20875;-94
2022/04/16 02:51:31;;;;;;;6.53;3.70;;;;;;;14.11;32.86;98611.88;5086668;28;20048;-93
2022/04/16 02:53:57;;;;;;;7.72;3.67;;;;;;;14.17;32.41;98620.50;5091296;28;20037;-94
2022/04/16 02:56:23;;;;;;;6.15;3.70;;;;;;;13.97;32.68;98591.97;5091644;28;20040;-91
2022/04/16 02:58:49;;;;;;;9.07;3.95;;;;;;;14.03;31.67;98595.31;5091116;28;20110;-91
2022/04/16 03:01:15;;;;;;;6.93;3.58;;;;;;;14.06;31.30;98597.88;5091606;28;20109;-94
2022/04/16 03:03:41;;;;;;;10.80;3.53;;;;;;;14.04;31.76;98591.72;5091651;28;20036;-92
2022/04/16 03:06:09;;;;;;;7.57;3.75;;;;;;;14.02;31.91;98599.78;5091857;28;20036;-91
2022/04/16 03:08:35;;;;;;;5.72;3.50;;;;;;;13.97;31.35;98583.97;5091372;28;20053;-93
2022/04/16 03:11:01;;;;;;;8.02;3.88;;;;;;;14.05;31.82;98582.75;5092224;28;20490;-93
2022/04/16 03:13:27;;;;;;;8.88;4.15;;;;;;;14.12;31.07;98570.88;5092718;28;20068;-93
2022/04/16 03:18:52;;;;;;;6.38;3.55;;;;;;;14.02;32.98;98597.13;5091600;27;20883;-91
2022/04/16 03:21:18;;;;;;;6.13;3.58;;;;;;;13.94;33.02;98596.59;5091700;28;20050;-94
2022/04/16 03:23:44;;;;;;;9.73;4.93;;;;;;;13.89;33.30;98593.25;5092138;28;20127;-93
2022/04/16 03:26:13;;;;;;;8.80;3.83;;;;;;;13.73;33.83;98579.69;5092059;28;20036;-94
2022/04/16 03:28:40;;;;;;;5.93;3.80;;;;;;;13.75;33.72;98581.34;5091949;28;20040;-92
2022/04/16 03:31:06;;;;;;;6.68;4.00;;;;;;;13.67;34.11;98580.81;5092146;28;20044;-91
2022/04/16 03:33:32;;;;;;;8.88;4.68;;;;;;;13.67;34.28;98583.47;5091435;28;20040;-91
2022/04/16 03:35:59;;;;;;;5.68;3.70;;;;;;;13.66;34.77;98597.78;5091428;28;20044;-90
2022/04/16 03:38:25;;;;;;;8.95;4.20;;;;;;;13.52;34.97;98581.47;5091816;28;20086;-91
2022/04/16 03:40:51;;;;;;;7.18;4.13;;;;;;;13.56;35.05;98596.44;5092192;28;20040;-93
2022/04/16 03:43:20;;;;;;;6.55;4.30;;;;;;;13.68;35.41;98598.56;5091236;28;20046;-91
2022/04/16 03:45:45;;;;;;;;;;;;;;;13.72;35.41;98602.84;5092620;28;20462;-92
2022/04/16 03:48:11;;;;;;;10.93;4.40;;;;;;;13.54;36.03;98591.16;5091823;28;19916;-92
2022/04/16 03:50:37;;;;;;;5.95;4.20;;;;;;;13.76;35.73;98607.13;5091574;28;20066;-91
2022/04/16 03:53:04;;;;;;;6.90;4.10;;;;;;;13.62;35.99;98585.50;5090655;28;20103;-91
2022/04/16 04:01:34;;;;;;;8.48;4.35;;;;;;;13.76;36.40;98577.72;5132826;27;20375;-91
2022/04/16 04:03:59;;;;;;;8.07;4.65;;;;;;;13.88;36.51;98607.53;5132393;28;20035;-91
2022/04/16 04:06:25;;;;;;;7.85;4.55;;;;;;;13.72;37.16;98589.50;5132062;27;20061;-92
2022/04/16 04:08:51;;;;;;;7.05;4.20;;;;;;;13.81;37.16;98601.59;5132285;28;20088;-93
2022/04/16 04:11:17;;;;;;;7.75;5.05;;;;;;;13.69;38.00;98586.97;5132289;28;20039;-91
2022/04/16 04:13:42;;;;;;;9.07;5.05;;;;;;;13.75;37.99;98586.69;5132782;28;20046;-92
2022/04/16 04:16:08;;;;;;;8.32;5.22;;;;;;;13.70;38.58;98574.47;5131802;27;20122;-92
2022/04/16 04:18:35;;;;;;;7.45;5.07;;;;;;;13.61;39.38;98578.41;5131375;28;20434;-91
2022/04/16 04:21:01;;;;;;;11.27;5.32;;;;;;;13.63;39.82;98581.00;5132720;28;20027;-91
2022/04/16 04:23:27;;;;;;;8.07;5.00;;;;;;;13.68;39.77;98597.69;5132739;28;20035;-91
2022/04/16 04:25:53;;;;;;;8.30;4.97;;;;;;;13.70;39.90;98602.03;5133692;28;20088;-91
2022/04/16 04:28:19;;;;;;;8.20;4.80;;;;;;;13.66;40.18;98591.56;5132971;28;20047;-93
2022/04/16 04:30:45;;;;;;;10.05;5.22;;;;;;;13.59;40.75;98604.31;5131650;28;20061;-92
2022/04/16 04:33:14;;;;;;;9.90;5.28;;;;;;;13.48;40.48;98577.19;5131850;28;20040;-93
2022/04/16 04:35:41;;;;;;;7.85;5.30;;;;;;;13.47;40.73;98586.13;5132267;28;20035;-92
2022/04/16 04:38:07;;;;;;;8.40;5.28;;;;;;;13.35;40.74;98572.34;5132276;28;20039;-92
2022/04/16 04:40:33;;;;;;;10.20;5.40;;;;;;;13.39;41.33;98601.59;5130949;28;20442;-92
2022/04/16 04:42:59;;;;;;;9.52;5.03;;;;;;;13.40;41.34;98606.00;5132804;28;20039;-91
2022/04/16 04:45:24;;;;;;;7.93;5.15;;;;;;;13.43;41.36;98611.25;5131568;27;20046;-93
2022/04/16 04:47:50;;;;;;;8.32;5.60;;;;;;;13.41;41.00;98597.94;5132609;28;20035;-91
2022/04/16 04:50:16;;;;;;;10.55;5.18;;;;;;;13.38;41.37;98602.53;5131767;28;20044;-91
2022/04/16 04:52:43;;;;;;;9.00;4.78;;;;;;;13.48;41.17;98598.53;5132519;28;20039;-92
2022/04/16 04:55:12;;;;;;;9.10;5.03;;;;;;;13.50;41.53;98597.53;5131567;28;20107;-91
2022/04/16 04:57:38;;;;;;;7.07;5.07;;;;;;;13.47;41.65;98603.03;5131805;27;20043;-93
2022/04/16 05:00:05;;;;;;;7.38;4.97;;;;;;;13.45;41.61;98604.03;5132000;28;20056;-93
2022/04/16 05:02:41;;;;;;;9.25;4.95;;;;;;;13.30;41.60;98578.81;5131762;28;20071;-93
2022/04/16 05:05:07;;;;;;;8.35;5.55;;;;;;;13.41;41.73;98602.41;5111442;28;20044;-94
2022/04/16 05:07:33;;;;;;;11.00;5.70;;;;;;;13.33;42.34;98598.25;5130065;28;20039;-91
2022/04/16 05:10:00;;;;;;;9.15;5.20;;;;;;;13.32;42.22;98583.16;5132474;27;20046;-91
2022/04/16 05:12:26;;;;;;;9.52;5.20;;;;;;;13.43;42.30;98603.22;5120752;28;20122;-94
2022/04/16 05:14:52;;;;;;;8.57;5.00;;;;;;;13.53;42.39;98605.44;5117600;28;20063;-92
2022/04/16 05:17:18;;;;;;;8.82;5.00;;;;;;;13.47;42.39;98596.81;5117795;28;20043;-90
2022/04/16 05:19:43;;;;;;;9.38;4.95;;;;;;;13.56;42.50;98612.47;5118543;28;20046;-93
2022/04/16 05:22:09;;;;;;;8.57;5.78;;;;;;;13.64;42.34;98607.69;5117769;28;20040;-92
2022/04/16 05:24:35;;;;;;;9.57;5.35;;;;;;;13.67;42.46;98594.16;5118036;28;20089;-93
2022/04/16 05:27:02;;;;;;;8.50;5.60;;;;;;;13.85;42.23;98602.34;5119372;28;20040;-91
2022/04/16 05:29:48;;;;;;;7.45;5.30;;;;;;;13.99;42.59;98618.66;5117827;28;20484;-94
2022/04/16 05:32:15;;;;;;;7.50;5.70;;;;;;;14.03;42.12;98614.03;5118981;28;20047;-90
2022/04/16 05:34:41;;;;;;;11.48;5.32;;;;;;;14.04;41.85;98595.25;5117531;28;20044;-93
2022/04/16 05:37:07;;;;;;;8.32;5.05;;;;;;;14.16;41.76;98605.41;5117452;28;20032;-94
2022/04/16 05:39:32;;;;;;;9.38;5.43;;;;;;;14.21;41.77;98597.19;5117716;28;20040;-95
2022/04/16 05:41:58;;;;;;;9.73;5.72;;;;;;;14.34;41.77;98593.03;5118051;28;20615;-92
2022/04/16 05:44:25;;;;;;;7.55;4.95;;;;;;;14.41;41.82;98598.97;5116732;28;20131;-91
2022/04/16 05:46:51;;;;;;;7.70;5.43;;;;;;;14.52;42.10;98609.16;5117366;28;20059;-94
2022/04/16 05:49:17;;;;;;;9.60;5.75;;;;;;;14.49;41.83;98607.50;5118471;28;20063;-93
2022/04/16 05:51:43;;;;;;;9.10;5.45;;;;;;;14.61;41.73;98605.25;5118040;28;20040;-90
2022/04/16 05:54:09;;;;;;;7.65;5.43;;;;;;;14.74;42.26;98612.63;5117098;28;20035;-91
2022/04/16 05:56:35;;;;;;;9.02;5.40;;;;;;;14.75;42.05;98601.00;5118164;28;20052;-91
2022/04/16 05:59:01;;;;;;;12.82;5.80;;;;;;;14.79;41.94;98601.72;5118718;28;20044;-91
2022/04/16 06:01:28;;;;;;;11.15;5.72;;;;;;;14.79;42.32;98597.22;5117388;28;20131;-91
2022/04/16 06:03:54;;;;;;;13.75;5.40;;;;;;;14.81;42.52;98588.25;5116991;28;20048;-91
2022/04/16 06:06:20;;;;;;;7.97;5.38;;;;;;;14.82;42.59;98576.63;5117611;28;20067;-92
2022/04/16 06:08:45;;;;;;;9.48;5.32;;;;;;;14.94;42.33;98594.75;5116957;28;20502;-93
2022/04/16 06:11:12;;;;;;;9.38;5.20;;;;;;;15.22;42.79;98599.66;5116333;28;20036;-91
2022/04/16 06:13:38;;;;;;;7.70;5.50;;;;;;;15.11;42.49;98607.34;5117625;28;20062;-92
2022/04/16 06:16:06;;;;;;;7.15;5.20;;;;;;;15.25;42.89;98604.88;5117228;28;20043;-91
2022/04/16 06:18:33;;;;;;;9.33;5.73;;;;;;;15.32;42.13;98587.53;5117197;28;20500;-95
2022/04/16 06:20:59;;;;;;;9.07;5.80;;;;;;;15.29;42.30;98587.72;5117607;28;20092;-93
2022/04/16 06:23:25;;;;;;;13.45;6.25;;;;;;;15.54;42.41;98603.41;5115978;28;20043;-91
2022/04/16 06:25:51;;;;;;;9.75;5.80;;;;;;;15.46;41.82;98585.97;5117646;28;20040;-92
2022/04/16 06:28:16;;;;;;;10.20;6.10;;;;;;;15.63;42.31;98602.09;5116283;28;20036;-92
2022/04/16 06:30:42;;;;;;;8.77;5.70;;;;;;;15.57;42.73;98597.03;5118657;28;20042;-92
2022/04/16 06:33:08;;;;;;;10.30;5.70;;;;;;;15.66;42.58;98593.91;5115604;28;20036;-93
2022/04/16 06:35:35;;;;;;;7.93;5.68;;;;;;;15.92;41.89;98607.84;5115571;28;20043;-90
2022/04/16 06:38:01;;;;;;;10.57;6.00;;;;;;;15.88;42.01;98598.22;5115024;28;20507;-91
2022/04/16 06:40:27;;;;;;;8.50;5.72;;;;;;;15.84;42.50;98596.63;5115768;28;20031;-90
2022/04/16 06:42:53;;;;;;;10.77;5.90;;;;;;;16.07;42.07;98612.41;5115086;28;20044;-91
2022/04/16 06:45:19;;;;;;;8.32;5.63;;;;;;;16.08;42.30;98595.34;5115820;28;20086;-91
2022/04/16 06:47:44;;;;;;;10.60;5.97;;;;;;;16.11;41.17;98600.56;5115597;28;20036;-93
2022/04/16 06:50:10;;;;;;;9.25;5.93;;;;;;;16.07;41.27;98582.91;5115734;28;20040;-90
2022/04/16 06:52:37;;;;;;;8.65;5.35;;;;;;;16.32;41.83;98595.88;5115423;28;20063;-91
2022/04/16 06:55:05;;;;;;;11.52;6.05;;;;;;;16.49;41.79;98603.03;5115032;28;20097;-92
2022/04/16 06:57:30;;;;;;;8.80;5.80;;;;;;;16.51;40.92;98579.66;5114308;28;20067;-91
2022/04/16 06:59:56;;;;;;;9.35;5.68;;;;;;;16.74;40.97;98582.88;5114550;28;20098;-91
2022/04/16 07:02:22;;;;;;;9.73;5.20;;;;;;;16.86;41.17;98597.50;5115234;28;20069;-92
2022/04/16 07:04:48;;;;;;;8.18;5.55;;;;;;;16.95;40.27;98580.84;5114107;28;20035;-91
2022/04/16 07:07:13;;;;;;;10.73;5.80;;;;;;;17.25;40.51;98591.69;5111301;28;20061;-91
2022/04/16 07:09:42;;;;;;;12.25;6.03;;;;;;;16.95;40.80;98576.34;5114399;28;20464;-92
2022/04/16 07:12:10;;;;;;;9.70;5.40;;;;;;;17.10;40.49;98565.69;5116073;27;20502;-91
2022/04/16 07:14:38;;;;;;;8.55;5.80;;;;;;;17.43;39.76;98571.81;5114474;28;20040;-92
2022/04/16 07:17:06;;;;;;;11.70;5.70;;;;;;;17.71;40.27;98589.00;5115144;28;20055;-90
2022/04/16 07:19:39;;;;;;;11.95;6.60;;;;;;;17.63;39.12;98586.78;5115488;28;20047;-90
2022/04/16 07:22:06;;;;;;;10.82;6.22;;;;;;;17.73;39.37;98579.03;5110380;28;20032;-91
2022/04/16 07:24:37;;;;;;;8.88;5.80;;;;;;;17.86;40.12;98585.44;5109204;28;20054;-90
2022/04/16 07:27:06;;;;;;;10.60;6.68;;;;;;;17.62;38.89;98565.34;5111001;28;20151;-92
2022/04/16 07:29:32;;;;;;;11.50;6.85;;;;;;;17.81;40.37;98582.13;5114579;28;20040;-90
2022/04/16 07:31:58;;;;;;;11.88;7.03;;;;;;;17.84;39.59;98581.97;5114150;28;20050;-91
2022/04/16 07:34:25;;;;;;;14.93;8.25;;;;;;;17.89;39.71;98565.59;5114928;28;20063;-91
2022/04/16 07:36:51;;;;;;;14.85;7.57;;;;;;;18.10;39.36;98589.44;5114501;28;20032;-90
2022/04/16 07:39:17;;;;;;;12.25;7.28;;;;;;;18.47;39.29;98596.13;5113859;28;20068;-89
2022/04/16 07:41:43;;;;;;;11.10;7.28;;;;;;;18.44;38.25;98586.41;5113421;28;20042;-91
2022/04/16 07:44:10;;;;;;;13.07;7.63;;;;;;;18.73;39.10;98605.25;5113654;28;20039;-91
2022/04/16 07:46:36;;;;;;;10.55;7.60;;;;;;;18.61;39.36;98597.97;5112905;28;20040;-90
2022/04/16 07:49:04;;;;;;;12.93;7.97;;;;;;;18.46;37.82;98583.63;5113884;28;20035;-91
2022/04/16 07:51:30;;;;;;;14.60;8.65;;;;;;;18.70;38.52;98602.78;5113901;28;20747;-91
2022/04/16 07:53:57;;;;;;;12.00;7.47;;;;;;;18.73;38.42;98575.63;5114589;28;20118;-91
2022/04/16 07:56:24;;;;;;;11.50;7.78;;;;;;;18.56;39.57;98579.38;5114356;28;20060;-91
2022/04/16 07:58:50;;;;;;;12.95;7.30;;;;;;;18.64;38.75;98598.63;5114890;28;20051;-92
2022/04/16 08:01:17;;;;;;;9.75;6.60;;;;;;;18.86;38.78;98575.75;5113989;28;20092;-90
2022/04/16 08:03:43;;;;;;;11.73;7.13;;;;;;;18.72;39.33;98584.69;5113938;28;20504;-92
2022/04/16 08:06:09;;;;;;;14.93;7.55;;;;;;;18.82;40.54;98572.41;5114305;28;20039;-91
2022/04/16 08:08:38;;;;;;;12.18;6.90;;;;;;;18.98;39.28;98587.59;5113285;28;20505;-94
2022/04/16 08:11:04;;;;;;;11.50;7.68;;;;;;;18.87;39.11;98575.66;5114203;28;20032;-93
2022/04/16 08:13:30;;;;;;;12.20;7.40;;;;;;;19.06;39.36;98560.97;5114142;28;20050;-92
2022/04/16 08:15:55;;;;;;;12.60;8.07;;;;;;;19.14;38.42;98590.13;5114071;28;20130;-93
2022/04/16 08:18:23;;;;;;;12.32;7.38;;;;;;;19.07;39.49;98586.97;5114721;28;20067;-95
2022/04/16 08:20:49;;;;;;;15.65;7.35;;;;;;;19.07;39.92;98565.41;5114671;28;20036;-91
2022/04/16 08:23:15;;;;;;;12.82;6.28;;;;;;;19.36;38.90;98590.44;5118191;28;20035;-91
2022/04/16 08:28:26;;;;;;;10.30;6.55;;;;;;;19.45;38.91;98589.88;5143496;27;20397;-93
2022/04/16 08:30:52;;;;;;;13.52;6.80;;;;;;;19.47;39.29;98590.63;5111111;28;20044;-93
2022/04/16 08:33:21;;;;;;;12.20;6.68;;;;;;;19.64;38.96;98577.84;5112908;28;20048;-93
2022/04/16 08:35:47;;;;;;;12.98;7.20;;;;;;;19.72;39.71;98558.47;5116901;28;20035;-92
2022/04/16 08:38:13;;;;;;;14.57;6.80;;;;;;;19.84;38.30;98579.22;5111998;28;20062;-91
2022/04/16 08:40:39;;;;;;;12.52;7.10;;;;;;;19.67;38.98;98574.94;5111199;28;20051;-92
2022/04/16 08:43:07;;;;;;;13.02;7.38;;;;;;;19.82;38.56;98565.84;5104743;28;20474;-92
2022/04/16 08:45:36;;;;;;;15.38;7.88;;;;;;;20.07;38.89;98561.44;5109785;28;20035;-90
2022/04/16 08:48:03;;;;;;;15.57;7.45;;;;;;;20.33;37.53;98562.31;5111358;28;20160;-92
2022/04/16 08:50:29;;;;;;;15.75;7.88;;;;;;;20.44;37.83;98566.97;5121920;28;20040;-92
2022/04/16 08:52:57;;;;;;;14.63;7.50;;;;;;;20.44;37.99;98556.16;5110751;28;20040;-93
2022/04/16 08:55:23;;;;;;;14.77;8.10;;;;;;;20.78;38.08;98548.38;5110852;28;20044;-91
2022/04/16 08:57:48;;;;;;;16.38;7.90;;;;;;;20.76;36.55;98551.19;5111163;28;20039;-92
2022/04/16 09:00:16;;;;;;;15.90;8.35;;;;;;;20.59;37.13;98560.50;5110609;28;20039;-89
2022/04/16 09:02:52;;;;;;;16.40;7.80;;;;;;;20.78;37.43;98548.38;5111048;28;20047;-91
2022/04/16 09:05:19;;;;;;;12.77;7.28;;;;;;;21.00;36.77;98526.91;5110906;28;20060;-93
2022/04/16 09:07:45;;;;;;;13.35;8.48;;;;;;;20.53;37.09;98550.09;5111121;28;20028;-90
2022/04/16 09:10:12;;;;;;;12.63;7.25;;;;;;;20.79;36.79;98536.59;5110625;28;20047;-90
2022/04/16 09:12:39;;;;;;;15.32;8.05;;;;;;;21.06;37.25;98558.91;5111450;28;20040;-94
2022/04/16 09:15:06;;;;;;;18.08;8.32;;;;;;;20.46;37.57;98548.81;5111237;28;20562;-93
2022/04/16 09:17:32;;;;;;;17.42;8.45;;;;;;;20.81;36.23;98523.84;5110210;28;20123;-91
2022/04/16 09:20:00;;;;;;;12.10;7.38;;;;;;;21.07;36.53;98543.53;5110130;28;20036;-92
2022/04/16 09:22:30;;;;;;;14.25;7.25;;;;;;;21.12;36.81;98519.72;5109710;28;20564;-92
2022/04/16 09:24:56;;;;;;;12.88;8.30;;;;;;;21.13;35.96;98543.09;5110473;28;20048;-94
2022/04/16 09:27:21;;;;;;;13.40;7.93;;;;;;;20.64;36.01;98523.19;5110246;28;20139;-91
2022/04/16 09:29:47;;;;;;;14.90;7.95;;;;;;;20.59;36.68;98521.81;5112051;28;20043;-90
2022/04/16 09:32:22;;;;;;;14.82;7.68;;;;;;;21.15;35.90;98541.13;5110246;28;20048;-92
2022/04/16 09:34:48;;;;;;;16.15;7.60;;;;;;;21.18;36.85;98523.81;5110791;28;20050;-91
2022/04/16 09:37:15;;;;;;;12.85;7.47;;;;;;;21.28;36.78;98519.47;5125065;28;20036;-92
2022/04/16 09:39:41;;;;;;;21.42;8.98;;;;;;;20.51;36.74;98531.31;5097935;27;20050;-93
2022/04/16 09:42:07;;;;;;;15.23;9.48;;;;;;;20.48;37.82;98531.53;5098305;28;20036;-93
2022/04/16 09:44:38;;;;;;;16.13;8.30;;;;;;;20.72;37.07;98518.13;5096644;28;20043;-91
2022/04/16 09:47:05;;;;;;;12.52;7.70;;;;;;;20.61;36.91;98530.69;5096581;28;20032;-91
2022/04/16 09:49:34;;;;;;;12.93;8.48;;;;;;;20.32;37.12;98528.22;5096503;28;20068;-91
2022/04/16 09:52:02;;;;;;;15.07;7.57;;;;;;;21.01;37.74;98531.31;5096099;28;20063;-94
2022/04/16 09:54:32;;;;;;;12.75;7.13;;;;;;;21.06;36.43;98512.94;5096353;28;20036;-90
2022/04/16 09:57:01;;;;;;;13.90;8.02;;;;;;;20.99;37.59;98519.78;5084699;28;20044;-92
2022/04/16 09:59:34;;;;;;;15.00;7.80;;;;;;;21.59;36.45;98515.31;5095741;28;20131;-92
2022/04/16 10:02:02;;;;;;;13.73;7.75;;;;;;;21.77;35.01;98509.47;5095475;28;20078;-92
2022/04/16 10:04:30;;;;;;;13.07;7.38;;;;;;;21.66;36.37;98505.72;5095518;28;20040;-93
2022/04/16 10:06:56;;;;;;;11.60;7.43;;;;;;;21.47;35.95;98509.00;5096051;28;20036;-92
2022/04/16 10:09:24;;;;;;;16.08;8.00;;;;;;;21.54;36.43;98502.13;5095776;28;20051;-92
2022/04/16 10:14:58;;;;;;;13.68;7.30;;;;;;;21.95;34.73;98506.19;5090630;27;20409;-91
2022/04/16 10:17:27;;;;;;;13.32;8.13;;;;;;;21.77;35.72;98495.94;5070290;28;20072;-92
2022/04/16 10:19:54;;;;;;;12.25;7.82;;;;;;;21.69;34.96;98497.41;5071438;28;20144;-93
2022/04/16 10:22:25;;;;;;;12.18;7.93;;;;;;;21.89;35.02;98484.16;5070103;28;20118;-93
2022/04/16 10:24:53;;;;;;;14.00;8.55;;;;;;;21.33;36.04;98482.09;5071466;28;20099;-93
2022/04/16 10:27:23;;;;;;;14.30;7.20;;;;;;;21.79;36.43;98477.72;5068885;28;20045;-92
2022/04/16 10:29:48;;;;;;;10.98;8.20;;;;;;;21.85;35.98;98486.25;5070313;28;20126;-91
2022/04/16 10:32:17;;;;;;;13.23;7.28;;;;;;;22.12;35.71;98472.38;5070180;28;20163;-92
2022/04/16 10:34:43;;;;;;;12.13;7.43;;;;;;;22.10;35.75;98477.06;5066977;28;20064;-93
2022/04/16 10:37:20;;;;;;;14.63;7.85;;;;;;;21.77;35.50;98467.00;5070602;28;20098;-91
2022/04/16 10:39:47;;;;;;;20.15;7.53;;;;;;;21.89;35.57;98468.78;5067825;28;20072;-94
2022/04/16 10:42:13;;;;;;;11.45;7.57;;;;;;;21.98;35.31;98469.03;5070181;28;20141;-94
2022/04/16 10:44:44;;;;;;;14.25;8.38;;;;;;;21.41;35.76;98479.72;5071315;28;20486;-93
2022/04/16 10:47:12;;;;;;;15.02;7.78;;;;;;;21.67;36.11;98476.84;5067478;28;20055;-93
2022/04/16 10:49:41;;;;;;;10.73;7.30;;;;;;;22.05;35.60;98484.66;5070729;28;20442;-94
2022/04/16 10:52:18;;;;;;;14.50;7.72;;;;;;;22.07;35.19;98458.34;5070206;28;20041;-94
2022/04/16 10:54:47;;;;;;;12.55;7.45;;;;;;;22.26;35.83;98468.59;5070224;28;20135;-93
2022/04/16 10:57:20;;;;;;;12.02;7.68;;;;;;;22.28;35.80;98452.25;5070847;28;20048;-93
2022/04/16 10:59:46;;;;;;;13.32;7.80;;;;;;;22.25;34.95;98447.94;5065453;28;20056;-93
2022/04/16 11:02:19;;;;;;;12.68;8.30;;;;;;;21.91;35.36;98449.72;5057469;28;20045;-93
2022/04/16 11:04:59;;;;;;;11.77;7.15;;;;;;;22.24;35.28;98448.91;5070063;28;20052;-92
2022/04/16 11:07:26;;;;;;;12.60;7.53;;;;;;;21.84;34.89;98445.75;5070910;28;20047;-92
2022/04/16 11:09:52;;;;;;;14.25;7.80;;;;;;;22.10;34.61;98451.84;5070389;28;20072;-92
2022/04/16 11:12:19;;;;;;;14.90;7.30;;;;;;;21.92;34.95;98448.72;5069944;28;20439;-92
2022/04/16 11:14:48;;;;;;;16.48;7.47;;;;;;;22.03;34.73;98434.34;5069949;28;20140;-94
2022/04/16 11:17:14;;;;;;;13.60;8.48;;;;;;;21.69;34.75;98427.03;5069905;28;20067;-90
2022/04/16 11:19:39;;;;;;;12.38;7.50;;;;;;;21.76;35.49;98442.81;5069724;28;20085;-90
2022/04/16 11:22:07;;;;;;;11.93;8.02;;;;;;;22.02;35.54;98448.88;5069464;28;20037;-91
2022/04/16 11:24:32;;;;;;;13.50;7.30;;;;;;;22.22;34.41;98426.50;5064919;28;20037;-92
2022/04/16 11:35:58;;;;;;;11.15;6.90;;;;;;;22.00;35.43;98431.88;5107134;27;20360;-94
2022/04/16 11:38:26;;;;;;;12.73;7.32;;;;;;;22.29;35.99;98414.19;5074069;28;20044;-95
2022/04/16 11:40:52;;;;;;;12.97;7.80;;;;;;;22.54;35.51;98401.34;5074070;28;20040;-95
2022/04/16 11:43:21;;;;;;;10.82;7.60;;;;;;;22.45;34.16;98402.13;5074142;28;20117;-94
2022/04/16 11:45:47;;;;;;;11.13;6.63;;;;;;;22.61;33.94;98418.81;5073496;28;20064;-95
2022/04/16 11:48:14;;;;;;;12.23;6.85;;;;;;;22.42;34.84;98432.16;5072616;28;20462;-94
2022/04/16 11:50:40;;;;;;;13.77;7.93;;;;;;;22.28;35.28;98436.84;5071788;28;20039;-94
2022/04/16 11:53:12;;;;;;;10.43;6.88;;;;;;;22.21;35.35;98405.78;5070826;28;20446;-91
2022/04/16 11:55:44;;;;;;;9.50;7.13;;;;;;;21.79;35.59;98419.03;5069870;28;20067;-92